Time;durP1;ratioP1;P1;durP2;ratioP2;P2;SDS_P1;SDS_P2;PMS_P1;PMS_P2;Temp;Humidity;BMP_temperature;BMP_pressure;BME280_temperature;BME280_humidity;BME280_pressure;Samples;Min_cycle;Max_cycle;Signal;HPM_P1;HPM_P2
2021/06/23 00:00:31;;;;;;;13.27;2.70;;;;;;;19.36;76.98;99760.44;2218471;40;20029;-84
2021/06/23 00:02:03;;;;;;;6.30;2.75;;;;;;;19.36;76.89;99760.44;2218395;40;20045;-83
2021/06/23 00:03:34;;;;;;;5.30;2.40;;;;;;;19.35;77.26;99764.19;2218732;40;20292;-83
2021/06/23 00:05:07;;;;;;;9.18;3.05;;;;;;;19.35;77.45;99763.31;2218451;40;20034;-81
2021/06/23 00:06:39;;;;;;;5.35;2.15;;;;;;;19.38;77.38;99771.88;2218208;40;20044;-84
2021/06/23 00:08:12;;;;;;;7.72;2.55;;;;;;;19.40;77.06;99777.91;2217620;40;20033;-84
2021/06/23 00:09:42;;;;;;;5.97;2.25;;;;;;;19.32;77.05;99776.25;2216917;40;20428;-83
2021/06/23 00:11:14;;;;;;;9.02;2.63;;;;;;;19.27;77.20;99777.94;2216905;40;20030;-83
2021/06/23 00:12:47;;;;;;;3.92;2.10;;;;;;;19.25;77.41;99788.97;2217886;40;20133;-82
2021/06/23 00:14:20;;;;;;;7.75;2.30;;;;;;;19.26;77.34;99797.94;2218521;40;20041;-83
2021/06/23 00:15:50;;;;;;;5.82;2.47;;;;;;;19.24;77.48;99800.03;2220382;40;20040;-81
2021/06/23 00:17:22;;;;;;;5.68;1.80;;;;;;;19.22;77.47;99807.53;2232484;40;20021;-82
2021/06/23 00:18:54;;;;;;;6.63;2.65;;;;;;;19.23;77.55;99809.19;2234275;40;20045;-82
2021/06/23 00:20:25;;;;;;;4.43;2.40;;;;;;;19.24;77.35;99813.56;2221345;40;20029;-80
2021/06/23 00:21:57;;;;;;;4.88;2.20;;;;;;;19.21;77.27;99813.97;2218786;40;20042;-80
2021/06/23 00:23:30;;;;;;;5.85;2.13;;;;;;;19.15;77.45;99821.06;2229604;40;20121;-82
2021/06/23 00:25:01;;;;;;;6.72;2.30;;;;;;;19.17;77.49;99822.53;2229432;40;20037;-83
2021/06/23 00:26:33;;;;;;;8.70;2.58;;;;;;;19.15;77.68;99824.63;2229536;40;20123;-82
2021/06/23 00:28:06;;;;;;;7.65;2.80;;;;;;;19.17;77.65;99821.69;2230726;40;20033;-79
2021/06/23 00:29:37;;;;;;;8.57;2.58;;;;;;;19.16;77.78;99826.28;2231405;40;20561;-81
2021/06/23 00:31:08;;;;;;;4.72;2.00;;;;;;;19.20;77.80;99832.13;2228164;40;20464;-82
2021/06/23 00:32:43;;;;;;;3.20;1.83;;;;;;;19.27;77.39;99827.53;2224221;40;20052;-82
2021/06/23 00:34:16;;;;;;;5.20;1.70;;;;;;;19.36;77.26;99830.88;2224614;40;20035;-81
2021/06/23 00:35:48;;;;;;;4.20;1.77;;;;;;;19.42;77.10;99823.78;2227324;40;20057;-81
2021/06/23 00:37:19;;;;;;;4.85;2.45;;;;;;;19.46;76.81;99835.88;2228224;40;20390;-81
2021/06/23 00:38:52;;;;;;;3.50;1.90;;;;;;;19.49;76.78;99830.06;2228549;40;20036;-81
2021/06/23 00:40:24;;;;;;;4.70;2.15;;;;;;;19.54;76.47;99827.53;2226570;40;20041;-87
2021/06/23 00:41:56;;;;;;;4.35;2.00;;;;;;;19.60;76.13;99836.72;2219168;40;20034;-83
2021/06/23 00:43:28;;;;;;;8.15;1.70;;;;;;;19.61;76.12;99827.53;2218700;40;20026;-83
2021/06/23 00:45:01;;;;;;;6.65;2.63;;;;;;;19.62;76.08;99824.59;2217742;40;20216;-85
2021/06/23 00:46:33;;;;;;;6.43;2.45;;;;;;;19.64;75.85;99836.09;2217309;40;20041;-83
2021/06/23 00:48:08;;;;;;;4.53;1.85;;;;;;;19.64;76.00;99837.97;2218748;40;20021;-83
2021/06/23 00:49:38;;;;;;;5.00;2.63;;;;;;;19.66;75.80;99835.88;2221064;40;20021;-83
2021/06/23 00:51:13;;;;;;;5.25;2.47;;;;;;;19.68;75.84;99843.81;2218956;40;20056;-83
2021/06/23 00:52:45;;;;;;;6.85;3.10;;;;;;;19.68;75.60;99841.09;2223317;40;20041;-84
2021/06/23 00:54:18;;;;;;;7.13;3.22;;;;;;;19.56;76.02;99849.00;2224173;40;20040;-82
2021/06/23 00:55:53;;;;;;;7.03;2.72;;;;;;;19.41;76.12;99844.63;2223097;40;20028;-83
2021/06/23 00:57:25;;;;;;;5.07;2.70;;;;;;;19.28;76.95;99837.34;2224115;40;20029;-82
2021/06/23 00:58:57;;;;;;;9.80;2.88;;;;;;;19.26;76.92;99836.72;2224641;40;20013;-81
2021/06/23 01:00:34;;;;;;;11.15;2.92;;;;;;;19.21;77.04;99835.66;2224095;40;20033;-82
2021/06/23 01:02:06;;;;;;;6.18;2.70;;;;;;;19.15;77.36;99832.75;2227108;40;20116;-80
2021/06/23 01:03:38;;;;;;;5.15;2.45;;;;;;;19.11;77.49;99827.94;2212795;40;20120;-82
2021/06/23 01:05:13;;;;;;;8.35;2.92;;;;;;;19.09;77.69;99825.41;2222936;40;20053;-79
2021/06/23 01:06:45;;;;;;;6.28;2.45;;;;;;;19.08;78.07;99826.47;2227655;40;20391;-81
2021/06/23 01:08:17;;;;;;;10.65;3.75;;;;;;;19.09;78.07;99828.13;2227943;40;20033;-80
2021/06/23 01:09:52;;;;;;;8.30;2.92;;;;;;;19.06;77.97;99819.59;2227394;40;20013;-80
2021/06/23 01:11:27;;;;;;;6.75;3.67;;;;;;;19.01;78.31;99818.34;2228598;40;20044;-83
2021/06/23 01:13:40;;;;;;;8.02;2.65;;;;;;;19.03;78.47;99815.41;2225536;40;20097;-82
2021/06/23 01:15:13;;;;;;;5.68;2.63;;;;;;;19.05;78.28;99812.50;2218345;40;20033;-85
2021/06/23 01:16:45;;;;;;;8.70;2.92;;;;;;;19.06;78.28;99808.75;2218429;40;20053;-81
2021/06/23 01:18:18;;;;;;;7.47;2.90;;;;;;;19.04;78.30;99814.38;2223389;40;20052;-79
2021/06/23 01:19:56;;;;;;;7.80;3.33;;;;;;;18.96;78.57;99804.56;2225098;40;20120;-81
2021/06/23 01:21:29;;;;;;;8.48;2.95;;;;;;;18.93;79.19;99806.84;2218468;40;20034;-81
2021/06/23 01:23:01;;;;;;;7.53;3.10;;;;;;;18.91;79.05;99807.03;2215845;40;20038;-82
2021/06/23 01:24:33;;;;;;;6.78;2.67;;;;;;;18.91;79.21;99807.03;2216232;40;20442;-82
2021/06/23 01:26:05;;;;;;;6.40;2.60;;;;;;;18.96;78.91;99809.16;2217181;40;20485;-82
2021/06/23 01:27:37;;;;;;;8.20;3.10;;;;;;;19.01;78.91;99806.66;2216675;40;20037;-79
2021/06/23 01:29:09;;;;;;;6.70;2.72;;;;;;;19.02;78.79;99809.19;2217356;40;20041;-82
2021/06/23 01:30:41;;;;;;;6.68;2.70;;;;;;;19.09;78.99;99803.75;2226805;40;20036;-82
2021/06/23 01:32:13;;;;;;;7.22;2.97;;;;;;;19.11;79.00;99801.69;2228890;40;20048;-83
2021/06/23 01:33:45;;;;;;;5.05;2.90;;;;;;;19.10;78.99;99805.41;2230651;40;20048;-82
2021/06/23 01:35:17;;;;;;;6.53;2.70;;;;;;;19.06;79.25;99804.19;2230250;40;20029;-81
2021/06/23 01:36:49;;;;;;;5.97;2.75;;;;;;;19.07;79.19;99805.84;2226946;40;20341;-83
2021/06/23 01:38:22;;;;;;;8.98;3.47;;;;;;;19.09;79.18;99806.47;2222577;40;20037;-82
2021/06/23 01:39:54;;;;;;;6.35;3.67;;;;;;;19.03;78.97;99810.00;2222668;40;20057;-81
2021/06/23 01:41:26;;;;;;;5.10;2.72;;;;;;;18.99;79.60;99809.59;2222899;40;20040;-82
2021/06/23 01:42:58;;;;;;;7.47;3.53;;;;;;;19.01;78.99;99817.50;2222910;40;20033;-81
2021/06/23 01:44:30;;;;;;;8.73;2.83;;;;;;;19.01;79.24;99806.66;2222943;40;20044;-81
2021/06/23 01:46:02;;;;;;;4.13;2.72;;;;;;;19.08;79.45;99817.50;2223533;40;20049;-82
2021/06/23 01:47:33;;;;;;;6.60;2.60;;;;;;;19.12;79.19;99816.88;2216460;40;20037;-81
2021/06/23 01:49:04;;;;;;;10.02;4.00;;;;;;;19.17;78.82;99817.13;2216185;40;20037;-81
2021/06/23 01:50:35;;;;;;;7.18;3.38;;;;;;;19.23;78.73;99820.03;2216651;40;20040;-82
2021/06/23 01:52:08;;;;;;;11.13;3.35;;;;;;;19.26;78.34;99816.91;2220468;40;20486;-81
2021/06/23 01:53:41;;;;;;;6.50;2.95;;;;;;;19.29;78.62;99830.88;2224059;40;20040;-82
2021/06/23 01:55:27;;;;;;;4.95;2.90;;;;;;;19.29;78.51;99828.16;2223186;40;20029;-82
2021/06/23 01:56:58;;;;;;;6.75;3.28;;;;;;;19.31;78.51;99826.09;2217965;40;20030;-83
2021/06/23 01:58:30;;;;;;;7.10;3.03;;;;;;;19.32;78.27;99833.16;2219350;40;20176;-82
2021/06/23 02:00:01;;;;;;;6.05;3.53;;;;;;;19.34;78.50;99832.97;2219113;40;20061;-83
2021/06/23 02:01:46;;;;;;;7.97;3.05;;;;;;;19.34;78.48;99832.97;2226360;40;20025;-82
2021/06/23 02:03:26;;;;;;;5.07;3.13;;;;;;;19.33;78.22;99829.41;2217353;40;20037;-84
2021/06/23 02:05:04;;;;;;;5.57;3.05;;;;;;;19.36;78.10;99820.06;2219175;40;20199;-80
2021/06/23 02:07:09;;;;;;;6.38;3.55;;;;;;;19.39;77.92;99816.91;2229958;40;20029;-81
2021/06/23 02:08:58;;;;;;;6.35;3.03;;;;;;;19.40;78.09;99815.88;2223885;40;20466;-83
2021/06/23 02:10:45;;;;;;;10.93;4.65;;;;;;;19.37;77.77;99816.28;2217675;40;20429;-83
2021/06/23 02:12:42;;;;;;;7.03;4.25;;;;;;;19.29;78.05;99821.91;2218926;40;20037;-82
2021/06/23 02:14:38;;;;;;;11.13;4.72;;;;;;;19.16;78.19;99809.19;2216815;40;20318;-82
2021/06/23 02:16:10;;;;;;;4.93;2.97;;;;;;;19.15;78.69;99813.78;2211887;40;20115;-82
2021/06/23 02:17:45;;;;;;;7.38;3.70;;;;;;;19.21;78.54;99808.56;2218281;40;20030;-83
2021/06/23 02:19:17;;;;;;;6.65;3.63;;;;;;;19.18;78.53;99813.34;2218244;40;20033;-83
2021/06/23 02:20:51;;;;;;;6.32;4.30;;;;;;;19.16;78.74;99807.31;2218609;40;20037;-81
2021/06/23 02:22:24;;;;;;;7.63;4.57;;;;;;;19.12;78.70;99800.63;2220115;40;20087;-83
2021/06/23 02:23:59;;;;;;;9.93;4.65;;;;;;;19.10;78.86;99797.28;2221755;40;20038;-84
2021/06/23 02:25:31;;;;;;;6.60;4.20;;;;;;;19.08;79.11;99799.38;2220518;40;20041;-83
2021/06/23 02:27:03;;;;;;;6.13;4.25;;;;;;;19.08;78.99;99796.66;2220378;40;20052;-82
2021/06/23 02:28:34;;;;;;;7.68;4.13;;;;;;;19.04;78.95;99795.41;2228243;40;20029;-81
2021/06/23 02:30:09;;;;;;;7.05;4.72;;;;;;;19.02;79.06;99792.94;2234274;40;20077;-79
2021/06/23 02:31:40;;;;;;;6.68;4.32;;;;;;;19.04;79.30;99790.00;2225198;40;20025;-83
2021/06/23 02:33:13;;;;;;;8.63;4.22;;;;;;;19.07;79.19;99789.59;2224451;40;20063;-84
2021/06/23 02:34:47;;;;;;;7.40;4.82;;;;;;;19.07;79.11;99789.59;2224827;40;20045;-82
2021/06/23 02:36:18;;;;;;;9.10;4.55;;;;;;;18.99;79.11;99797.91;2223214;40;20033;-83
2021/06/23 02:37:51;;;;;;;8.85;4.70;;;;;;;18.93;78.97;99794.16;2227649;40;20112;-83
2021/06/23 02:39:24;;;;;;;7.75;4.90;;;;;;;18.88;79.42;99798.50;2226514;40;20025;-83
2021/06/23 02:40:56;;;;;;;9.82;5.05;;;;;;;18.84;79.54;99784.53;2224871;40;20033;-83
2021/06/23 02:42:29;;;;;;;6.85;5.03;;;;;;;18.81;79.64;99785.75;2225595;40;20040;-82
2021/06/23 02:44:01;;;;;;;8.52;4.80;;;;;;;18.71;79.57;99782.59;2225303;40;20065;-83
2021/06/23 02:45:33;;;;;;;9.85;5.18;;;;;;;18.65;79.64;99775.31;2226349;40;20065;-81
2021/06/23 02:47:05;;;;;;;9.00;6.07;;;;;;;18.66;80.05;99774.28;2228446;40;20037;-81
2021/06/23 02:48:37;;;;;;;7.03;4.20;;;;;;;18.65;79.98;99775.31;2224847;40;20158;-81
2021/06/23 02:50:10;;;;;;;8.63;5.82;;;;;;;18.66;79.91;99774.28;2223004;40;20208;-84
2021/06/23 02:51:43;;;;;;;16.08;7.55;;;;;;;18.64;79.97;99779.06;2232406;40;20016;-83
2021/06/23 02:53:16;;;;;;;9.45;6.03;;;;;;;18.64;79.68;99781.75;2234609;40;20047;-83
2021/06/23 02:54:49;;;;;;;13.85;6.30;;;;;;;18.62;79.97;99783.84;2227956;40;20471;-81
2021/06/23 02:56:22;;;;;;;8.50;5.03;;;;;;;18.61;79.99;99798.44;2228930;40;20013;-80
2021/06/23 02:57:55;;;;;;;6.97;4.78;;;;;;;18.65;79.81;99791.56;2229918;40;20021;-79
2021/06/23 02:59:27;;;;;;;6.82;4.80;;;;;;;18.72;79.91;99797.81;2229107;40;20029;-80
2021/06/23 03:00:59;;;;;;;7.97;4.70;;;;;;;18.76;79.47;99801.81;2227865;40;20061;-82
2021/06/23 03:02:31;;;;;;;6.55;4.30;;;;;;;18.76;79.66;99807.22;2227978;40;20058;-82
2021/06/23 03:04:02;;;;;;;10.07;4.72;;;;;;;18.80;79.39;99808.47;2228145;40;20040;-80
2021/06/23 03:05:33;;;;;;;10.02;4.82;;;;;;;18.80;79.64;99804.94;2228422;40;20037;-81
2021/06/23 03:07:09;;;;;;;8.88;5.55;;;;;;;18.73;79.58;99799.50;2227840;40;20094;-83
2021/06/23 03:08:41;;;;;;;9.52;5.00;;;;;;;18.70;79.70;99805.34;2221598;40;20033;-83
2021/06/23 03:10:14;;;;;;;7.45;4.53;;;;;;;18.69;79.97;99814.50;2222281;40;20029;-86
2021/06/23 03:11:46;;;;;;;7.70;4.90;;;;;;;18.72;79.67;99808.66;2222354;40;20644;-84
2021/06/23 03:13:17;;;;;;;9.18;4.90;;;;;;;18.71;79.92;99810.53;2222319;40;20401;-85
2021/06/23 03:14:49;;;;;;;8.75;4.88;;;;;;;18.67;79.87;99803.03;2221299;40;20030;-82
2021/06/23 03:16:19;;;;;;;12.68;6.43;;;;;;;18.68;79.67;99810.13;2217750;40;20042;-84
2021/06/23 03:17:51;;;;;;;7.90;5.35;;;;;;;18.68;80.09;99813.63;2217503;40;20030;-82
2021/06/23 03:19:23;;;;;;;5.78;4.60;;;;;;;18.70;80.01;99810.75;2217875;40;20040;-84
2021/06/23 03:20:54;;;;;;;12.77;6.18;;;;;;;18.74;79.74;99817.41;2220761;40;20033;-83
2021/06/23 03:22:26;;;;;;;13.02;6.30;;;;;;;18.71;79.48;99821.38;2221065;40;20042;-83
2021/06/23 03:23:58;;;;;;;6.93;4.72;;;;;;;18.69;79.43;99826.16;2221002;40;20302;-84
2021/06/23 03:25:30;;;;;;;8.65;6.50;;;;;;;18.70;79.47;99832.41;2218744;40;20041;-82
2021/06/23 03:27:02;;;;;;;10.82;6.75;;;;;;;18.62;79.63;99829.84;2225189;40;20033;-83
2021/06/23 03:28:34;;;;;;;11.13;7.20;;;;;;;18.57;79.75;99825.06;2226556;40;20096;-83
2021/06/23 03:30:06;;;;;;;7.50;4.82;;;;;;;18.59;79.74;99836.50;2225744;40;20037;-83
2021/06/23 03:31:38;;;;;;;7.57;5.05;;;;;;;18.66;79.89;99826.53;2224789;40;20041;-83
2021/06/23 03:33:10;;;;;;;6.85;4.35;;;;;;;18.73;79.79;99831.97;2225689;40;20057;-82
2021/06/23 03:34:43;;;;;;;6.63;4.60;;;;;;;18.81;79.46;99830.97;2223902;40;20043;-83
2021/06/23 03:36:14;;;;;;;8.25;4.85;;;;;;;18.84;79.34;99836.00;2224016;40;20448;-83
2021/06/23 03:37:45;;;;;;;10.05;5.53;;;;;;;18.85;79.20;99835.78;2218556;40;20645;-84
2021/06/23 03:39:17;;;;;;;10.73;6.18;;;;;;;18.81;78.84;99839.09;2219137;40;20038;-83
2021/06/23 03:40:51;;;;;;;9.55;6.95;;;;;;;18.72;79.33;99835.72;2221512;40;20048;-81
2021/06/23 03:42:22;;;;;;;6.70;5.90;;;;;;;18.64;79.76;99833.19;2221792;40;20030;-85
2021/06/23 03:43:54;;;;;;;8.88;6.40;;;;;;;18.62;79.52;99841.53;2221854;40;20045;-83
2021/06/23 03:45:29;;;;;;;8.25;5.90;;;;;;;18.62;79.97;99846.09;2221054;40;20026;-85
2021/06/23 03:49:26;;;;;;;7.22;4.93;;;;;;;18.64;79.96;99838.63;2213534;40;20025;-87
2021/06/23 03:50:57;;;;;;;9.00;5.85;;;;;;;18.66;79.75;99834.66;2221820;40;20097;-83
2021/06/23 03:52:28;;;;;;;9.10;6.60;;;;;;;18.69;79.77;99841.56;2222235;40;20801;-84
2021/06/23 03:54:00;;;;;;;10.10;7.30;;;;;;;18.68;79.75;99851.53;2227892;40;20032;-81
2021/06/23 03:55:33;;;;;;;8.48;6.40;;;;;;;18.67;79.81;99849.06;2228821;40;20040;-81
2021/06/23 03:57:06;;;;;;;9.98;6.88;;;;;;;18.68;79.99;99846.13;2232719;40;20025;-82
2021/06/23 03:58:38;;;;;;;9.90;6.40;;;;;;;18.71;79.68;99847.59;2230316;40;20049;-85
2021/06/23 04:00:10;;;;;;;11.60;6.03;;;;;;;18.75;79.62;99846.16;2227538;40;20053;-85
2021/06/23 04:01:42;;;;;;;11.30;6.95;;;;;;;18.73;79.50;99848.22;2227590;40;20037;-82
2021/06/23 04:03:14;;;;;;;8.88;5.90;;;;;;;18.77;79.59;99854.06;2227870;40;20036;-81
2021/06/23 04:04:47;;;;;;;8.55;5.20;;;;;;;18.81;79.69;99842.63;2228171;40;20033;-86
2021/06/23 04:06:19;;;;;;;9.98;4.95;;;;;;;18.89;79.58;99851.63;2222075;40;20509;-89
2021/06/23 04:07:51;;;;;;;6.60;4.40;;;;;;;18.96;78.98;99856.03;2221850;40;20033;-87
2021/06/23 04:09:22;;;;;;;9.30;5.72;;;;;;;18.94;78.91;99847.28;2229264;40;20028;-81
2021/06/23 04:10:53;;;;;;;11.85;6.93;;;;;;;18.97;78.71;99859.59;2228238;40;20203;-82
2021/06/23 04:12:28;;;;;;;12.18;8.27;;;;;;;18.96;78.89;99852.50;2228944;40;20072;-86
2021/06/23 04:13:59;;;;;;;11.73;8.18;;;;;;;18.93;79.12;99852.91;2234142;40;20044;-86
2021/06/23 04:15:31;;;;;;;11.73;7.80;;;;;;;18.92;79.28;99856.63;2234446;40;20024;-86
2021/06/23 04:17:02;;;;;;;10.55;6.75;;;;;;;18.91;79.06;99850.38;2234182;40;20077;-80
2021/06/23 04:18:35;;;;;;;10.48;7.47;;;;;;;18.88;79.37;99850.78;2230174;40;20425;-84
2021/06/23 04:20:08;;;;;;;9.55;7.15;;;;;;;18.84;79.07;99839.53;2228219;40;20040;-84
2021/06/23 04:21:40;;;;;;;13.60;7.18;;;;;;;18.81;79.53;99839.09;2226422;40;20052;-82
2021/06/23 04:23:12;;;;;;;9.02;7.25;;;;;;;18.78;79.25;99834.06;2227968;40;20041;-80
2021/06/23 04:24:43;;;;;;;10.63;7.20;;;;;;;18.77;79.60;99837.81;2228060;40;20044;-82
2021/06/23 04:26:14;;;;;;;10.57;8.30;;;;;;;18.75;79.86;99846.16;2228258;40;20036;-81
2021/06/23 04:27:48;;;;;;;13.45;8.30;;;;;;;18.73;79.98;99836.56;2227331;40;20091;-86
2021/06/23 04:29:20;;;;;;;10.45;8.10;;;;;;;18.69;80.04;99838.84;2228160;40;20045;-88
2021/06/23 04:30:51;;;;;;;10.95;8.23;;;;;;;18.69;80.06;99847.81;2227964;40;20082;-80
2021/06/23 04:32:23;;;;;;;8.82;6.68;;;;;;;18.71;79.99;99845.72;2226901;40;20052;-80
2021/06/23 04:33:54;;;;;;;7.18;5.20;;;;;;;18.78;79.60;99856.59;2227922;40;20107;-80
2021/06/23 04:35:35;;;;;;;7.07;5.32;;;;;;;18.86;79.37;99855.56;2230930;40;20032;-80
2021/06/23 04:37:05;;;;;;;;;;;;;;;18.90;79.44;99858.69;2229443;40;20076;-81
2021/06/23 04:38:37;;;;;;;11.60;7.93;;;;;;;18.92;79.22;99864.75;2227968;40;20398;-83
2021/06/23 04:40:12;;;;;;;12.00;8.20;;;;;;;18.89;79.03;99865.16;2228092;40;20028;-85
2021/06/23 04:41:44;;;;;;;11.13;8.27;;;;;;;18.81;79.46;99868.88;2228131;40;20048;-84
2021/06/23 04:43:17;;;;;;;12.18;9.93;;;;;;;18.78;79.87;99864.72;2227701;40;20036;-86
2021/06/23 04:44:49;;;;;;;13.20;9.38;;;;;;;18.78;79.93;99866.56;2227635;40;20041;-84
2021/06/23 04:46:21;;;;;;;15.75;9.88;;;;;;;18.78;79.82;99861.16;2227694;40;20045;-86
2021/06/23 04:47:53;;;;;;;12.95;9.80;;;;;;;18.72;80.04;99857.38;2228035;40;20037;-84
2021/06/23 04:49:25;;;;;;;12.05;9.10;;;;;;;18.68;80.08;99861.56;2227971;40;20048;-83
2021/06/23 04:50:57;;;;;;;12.90;9.38;;;;;;;18.68;80.29;99850.72;2227823;40;20056;-82
2021/06/23 04:52:29;;;;;;;12.23;7.85;;;;;;;18.69;80.23;99861.34;2228139;40;20037;-84
2021/06/23 04:54:01;;;;;;;12.55;9.52;;;;;;;18.71;80.37;99850.28;2227870;40;20029;-84
2021/06/23 04:55:32;;;;;;;11.02;8.45;;;;;;;18.79;80.32;99852.84;2228113;40;20450;-86
2021/06/23 04:57:05;;;;;;;10.15;8.95;;;;;;;18.85;80.29;99857.44;2227908;40;20033;-81
2021/06/23 04:58:38;;;;;;;12.43;7.60;;;;;;;18.91;80.08;99853.09;2221683;40;20037;-84
2021/06/23 05:00:11;;;;;;;14.05;8.93;;;;;;;19.00;79.48;99867.28;2222123;40;20093;-85
2021/06/23 05:01:44;;;;;;;20.60;8.60;;;;;;;19.04;79.37;99859.59;2221717;40;20688;-86
2021/06/23 05:03:15;;;;;;;13.38;8.98;;;;;;;19.05;79.05;99853.97;2221614;40;20025;-86
2021/06/23 05:04:47;;;;;;;14.52;9.55;;;;;;;19.01;79.18;99864.41;2221361;40;20033;-85
2021/06/23 05:06:18;;;;;;;10.20;8.57;;;;;;;19.02;79.07;99863.34;2221935;40;20033;-87
2021/06/23 05:07:52;;;;;;;12.73;8.25;;;;;;;19.10;79.04;99862.31;2221951;40;20037;-87
2021/06/23 05:09:24;;;;;;;10.98;8.52;;;;;;;19.11;78.55;99857.75;2221680;40;20040;-87
2021/06/23 05:10:55;;;;;;;11.70;8.57;;;;;;;19.14;78.49;99868.16;2221573;40;20078;-85
2021/06/23 05:12:30;;;;;;;10.80;7.43;;;;;;;19.20;78.56;99861.94;2221737;40;20048;-85
2021/06/23 05:14:02;;;;;;;11.88;7.13;;;;;;;19.33;78.27;99866.53;2225850;40;20041;-85
2021/06/23 05:15:34;;;;;;;15.85;10.25;;;;;;;19.40;77.62;99869.25;2227847;40;20162;-85
2021/06/23 05:17:06;;;;;;;12.10;7.47;;;;;;;19.44;77.76;99870.47;2227883;40;20395;-86
2021/06/23 05:18:37;;;;;;;10.30;7.13;;;;;;;19.52;77.28;99872.16;2227840;40;20022;-80
2021/06/23 05:20:10;;;;;;;11.23;6.45;;;;;;;19.60;77.45;99880.91;2227668;40;20025;-83
2021/06/23 05:21:43;;;;;;;7.35;5.85;;;;;;;19.62;77.02;99867.16;2224372;40;20079;-85
2021/06/23 05:23:15;;;;;;;12.38;8.05;;;;;;;19.63;76.75;99868.84;2226973;40;20069;-83
2021/06/23 05:24:46;;;;;;;8.95;6.95;;;;;;;19.67;76.76;99870.06;2226882;40;20093;-82
2021/06/23 05:26:18;;;;;;;8.45;6.13;;;;;;;19.69;76.67;99873.41;2227303;40;20110;-84
2021/06/23 05:27:50;;;;;;;13.75;7.90;;;;;;;19.73;76.68;99871.97;2221804;40;20029;-84
2021/06/23 05:29:23;;;;;;;8.02;5.28;;;;;;;19.82;76.27;99869.84;2227570;40;20029;-85
2021/06/23 05:30:55;;;;;;;13.48;8.05;;;;;;;19.87;76.12;99874.69;2228658;40;20359;-85
2021/06/23 05:32:27;;;;;;;9.00;5.63;;;;;;;19.84;75.85;99886.75;2231885;40;20447;-80
2021/06/23 05:33:59;;;;;;;7.18;5.47;;;;;;;19.84;75.87;99875.91;2223248;40;20045;-80
2021/06/23 05:35:30;;;;;;;9.05;5.90;;;;;;;19.83;76.26;99884.28;2222530;40;20053;-88
2021/06/23 05:37:02;;;;;;;14.57;8.25;;;;;;;19.82;75.91;99877.19;2222287;40;20020;-86
2021/06/23 05:38:34;;;;;;;10.25;6.35;;;;;;;19.79;75.97;99890.09;2220641;40;20026;-82
2021/06/23 05:40:07;;;;;;;9.68;5.85;;;;;;;19.83;76.04;99890.50;2225785;40;20029;-84
2021/06/23 05:41:41;;;;;;;9.38;8.38;;;;;;;19.85;75.79;99888.47;2228328;40;20415;-86
2021/06/23 05:43:12;;;;;;;13.25;8.50;;;;;;;19.83;75.92;99887.81;2225877;40;20305;-84
2021/06/23 05:44:45;;;;;;;10.75;9.10;;;;;;;19.79;76.01;99897.38;2229049;40;20033;-86
2021/06/23 05:46:17;;;;;;;13.63;9.95;;;;;;;19.71;76.17;99893.03;2227778;40;20029;-84
2021/06/23 05:47:49;;;;;;;9.73;7.90;;;;;;;19.68;76.16;99895.31;2228668;40;20029;-82
2021/06/23 05:49:21;;;;;;;10.15;8.57;;;;;;;19.72;76.23;99900.13;2228305;40;20083;-83
2021/06/23 05:50:54;;;;;;;10.70;7.25;;;;;;;19.79;76.37;99900.09;2228846;40;20021;-80
2021/06/23 05:52:29;;;;;;;10.43;6.32;;;;;;;19.86;76.04;99897.44;2228807;40;20076;-88
2021/06/23 05:54:02;;;;;;;9.32;5.43;;;;;;;19.98;75.54;99898.47;2228691;40;20028;-84
2021/06/23 05:55:36;;;;;;;9.63;5.85;;;;;;;20.07;75.32;99908.06;2228774;40;20029;-83
2021/06/23 05:57:10;;;;;;;9.13;6.10;;;;;;;20.15;75.32;99915.16;2228622;40;20033;-86
2021/06/23 05:58:42;;;;;;;13.07;8.15;;;;;;;20.23;74.76;99914.94;2228662;40;20048;-85
2021/06/23 06:00:16;;;;;;;10.68;6.72;;;;;;;20.25;74.53;99928.28;2228218;40;20021;-85
2021/06/23 06:01:47;;;;;;;15.80;7.07;;;;;;;20.24;74.85;99930.16;2222595;40;20037;-85
2021/06/23 06:03:19;;;;;;;10.27;7.03;;;;;;;20.25;74.56;99928.28;2222410;40;20029;-86
2021/06/23 06:04:51;;;;;;;10.55;8.43;;;;;;;20.26;74.66;99933.47;2224548;40;20028;-84
2021/06/23 06:06:22;;;;;;;9.82;7.43;;;;;;;20.27;74.63;99934.31;2229090;39;20040;-80
2021/06/23 06:07:54;;;;;;;9.90;6.85;;;;;;;20.25;74.72;99936.41;2230734;40;20033;-86
2021/06/23 06:09:26;;;;;;;11.57;7.28;;;;;;;20.25;74.65;99944.56;2222605;40;20025;-84
2021/06/23 06:10:58;;;;;;;12.38;8.55;;;;;;;20.21;74.43;99937.91;2221475;40;20040;-83
2021/06/23 06:12:28;;;;;;;13.15;10.45;;;;;;;20.14;74.61;99939.75;2222182;40;20029;-85
2021/06/23 06:14:00;;;;;;;13.68;9.93;;;;;;;20.06;74.92;99947.09;2222181;40;20018;-84
2021/06/23 06:15:34;;;;;;;14.98;11.00;;;;;;;19.95;75.08;99942.28;2222677;40;20057;-80
2021/06/23 06:17:06;;;;;;;14.25;10.85;;;;;;;19.84;75.24;99940.19;2222486;40;20033;-83
2021/06/23 06:18:38;;;;;;;16.65;11.35;;;;;;;19.73;75.92;99945.19;2230445;40;20033;-81
2021/06/23 06:20:11;;;;;;;14.48;10.20;;;;;;;19.60;76.23;99937.03;2228828;40;20070;-86
2021/06/23 06:21:43;;;;;;;10.68;8.70;;;;;;;19.51;76.32;99936.38;2229279;40;20033;-83
2021/06/23 06:23:15;;;;;;;9.90;8.55;;;;;;;19.47;76.49;99951.41;2235001;40;20036;-85
2021/06/23 06:24:46;;;;;;;13.35;10.65;;;;;;;19.44;76.81;99947.22;2235069;40;20035;-86
2021/06/23 06:26:18;;;;;;;12.30;8.82;;;;;;;19.44;76.85;99949.94;2235055;40;20028;-88
2021/06/23 06:27:50;;;;;;;16.10;8.18;;;;;;;19.53;76.79;99947.84;2234934;40;20033;-87
2021/06/23 06:29:22;;;;;;;12.60;8.18;;;;;;;19.64;76.45;99951.84;2234970;40;20515;-81
2021/06/23 06:30:55;;;;;;;12.68;7.25;;;;;;;19.77;75.97;99956.44;2231168;40;20025;-86
2021/06/23 06:32:27;;;;;;;10.05;7.75;;;;;;;19.91;75.25;99951.91;2228496;40;20057;-85
2021/06/23 06:33:59;;;;;;;11.55;7.68;;;;;;;19.94;75.02;99954.16;2228426;40;20029;-84
2021/06/23 06:35:31;;;;;;;9.85;6.65;;;;;;;19.94;74.93;99946.03;2228420;40;20132;-85
2021/06/23 06:37:02;;;;;;;9.32;5.90;;;;;;;19.96;74.49;99943.94;2228650;40;20029;-86
2021/06/23 06:38:34;;;;;;;8.98;6.05;;;;;;;20.01;74.42;99949.59;2222291;40;20033;-85
2021/06/23 06:40:07;;;;;;;9.75;6.50;;;;;;;20.01;73.67;99951.47;2222085;40;20139;-81
2021/06/23 06:41:39;;;;;;;11.15;6.55;;;;;;;19.93;73.85;99947.09;2222528;40;20029;-84
2021/06/23 06:43:11;;;;;;;8.80;6.20;;;;;;;19.93;73.95;99949.81;2222446;40;20029;-86
2021/06/23 06:44:42;;;;;;;10.18;6.05;;;;;;;20.04;73.26;99941.03;2225285;40;20029;-88
2021/06/23 06:46:15;;;;;;;9.77;5.60;;;;;;;20.13;72.96;99944.38;2228391;40;20029;-86
2021/06/23 06:47:47;;;;;;;12.15;5.70;;;;;;;20.26;72.47;99943.50;2228505;40;20285;-86
2021/06/23 06:49:18;;;;;;;6.60;4.45;;;;;;;20.23;71.68;99949.34;2228305;40;20029;-85
2021/06/23 06:50:51;;;;;;;11.77;6.07;;;;;;;20.13;71.17;99936.22;2221956;40;20083;-86
2021/06/23 06:52:23;;;;;;;7.18;5.28;;;;;;;20.09;71.40;99952.09;2221788;40;20029;-87
2021/06/23 06:53:54;;;;;;;7.72;4.85;;;;;;;20.10;71.32;99948.34;2224739;40;20040;-84
2021/06/23 06:55:26;;;;;;;7.00;4.43;;;;;;;20.19;71.34;99945.41;2232833;40;20035;-84
2021/06/23 06:56:58;;;;;;;7.13;4.22;;;;;;;20.40;70.89;99956.00;2231027;40;20040;-82
2021/06/23 06:58:29;;;;;;;7.35;4.88;;;;;;;20.67;70.32;99955.09;2221708;40;20029;-85
2021/06/23 07:00:01;;;;;;;7.05;4.40;;;;;;;20.84;69.33;99950.91;2225057;40;20835;-80
2021/06/23 07:01:34;;;;;;;8.13;4.50;;;;;;;20.91;69.00;99952.78;2228793;40;20032;-81
2021/06/23 07:03:06;;;;;;;5.55;3.78;;;;;;;20.96;68.76;99948.38;2226600;40;20051;-79
2021/06/23 07:04:38;;;;;;;6.05;3.97;;;;;;;21.06;68.41;99950.59;2226882;40;20045;-79
2021/06/23 07:06:09;;;;;;;7.53;4.88;;;;;;;21.21;67.69;99944.06;2227668;40;20013;-83
2021/06/23 07:07:41;;;;;;;7.18;3.75;;;;;;;21.33;67.62;99950.47;2227884;40;20013;-83
2021/06/23 07:09:12;;;;;;;7.00;5.20;;;;;;;21.47;67.10;99953.94;2226618;40;20049;-85
2021/06/23 07:10:44;;;;;;;9.90;4.68;;;;;;;21.44;66.47;99947.06;2228761;40;20036;-84
2021/06/23 07:12:16;;;;;;;8.02;4.20;;;;;;;21.50;66.50;99948.06;2233018;40;20047;-87
2021/06/23 07:13:48;;;;;;;7.03;4.60;;;;;;;21.59;66.12;99952.22;2232773;40;20040;-90
2021/06/23 07:15:19;;;;;;;6.88;5.38;;;;;;;21.63;65.72;99945.25;2226586;40;20036;-87
2021/06/23 07:16:52;;;;;;;8.93;4.68;;;;;;;21.68;65.78;99946.50;2226625;40;20029;-86
2021/06/23 07:18:24;;;;;;;6.88;4.80;;;;;;;21.70;65.80;99952.56;2231657;40;20028;-86